createdAt,value
2023-03-22T00:00:20.732Z,32.50
2023-03-22T00:03:11.651Z,31.00
2023-03-22T00:05:43.739Z,33.10
2023-03-22T00:08:15.248Z,28.40
2023-03-22T00:10:47.717Z,31.60
2023-03-22T00:13:17.077Z,29.30
2023-03-22T00:15:48.505Z,31.70
2023-03-22T00:18:20.728Z,31.00
2023-03-22T00:20:55.699Z,27.80
2023-03-22T00:26:41.408Z,28.50
2023-03-22T00:29:11.140Z,29.40
2023-03-22T00:31:41.377Z,29.40
2023-03-22T00:34:11.047Z,31.10
2023-03-22T00:36:40.863Z,31.50
2023-03-22T00:39:10.540Z,29.30
2023-03-22T00:41:40.163Z,29.50
2023-03-22T00:44:15.652Z,28.30
2023-03-22T00:46:45.342Z,29.70
2023-03-22T00:49:15.404Z,29.70
2023-03-22T00:51:49.086Z,31.70
2023-03-22T00:54:39.085Z,33.10
2023-03-22T00:57:26.885Z,31.60
2023-03-22T00:59:58.126Z,33.90
2023-03-22T01:02:29.329Z,32.90
2023-03-22T01:04:59.662Z,29.60
2023-03-22T01:07:28.989Z,32.80
2023-03-22T01:09:59.243Z,34.30
2023-03-22T01:12:30.614Z,33.00
2023-03-22T01:15:01.021Z,32.60
2023-03-22T01:17:41.665Z,32.20
2023-03-22T01:20:14.095Z,36.10
2023-03-22T01:22:44.818Z,32.90
2023-03-22T01:25:15.558Z,34.70
2023-03-22T01:27:47.823Z,34.90
2023-03-22T01:30:18.060Z,32.80
2023-03-22T01:32:48.911Z,31.50
2023-03-22T01:35:20.730Z,35.20
2023-03-22T01:37:51.676Z,33.50
2023-03-22T01:40:22.866Z,39.60
2023-03-22T01:42:54.093Z,35.50
2023-03-22T01:45:39.751Z,33.80
2023-03-22T01:48:20.102Z,33.70
2023-03-22T01:50:59.345Z,34.80
2023-03-22T01:53:40.225Z,33.00
2023-03-22T01:56:14.841Z,34.80
2023-03-22T01:58:45.430Z,32.60
2023-03-22T02:01:16.284Z,35.10
2023-03-22T02:03:50.570Z,37.00
2023-03-22T02:06:21.653Z,34.40
2023-03-22T02:08:52.597Z,33.50
2023-03-22T02:11:33.840Z,31.20
2023-03-22T02:14:41.234Z,36.20
2023-03-22T02:17:28.708Z,31.40
2023-03-22T02:20:34.110Z,34.10
2023-03-22T02:23:35.286Z,27.60
2023-03-22T02:26:38.692Z,31.60
2023-03-22T02:29:18.816Z,30.00
2023-03-22T02:32:33.471Z,36.70
2023-03-22T02:35:26.991Z,30.90
2023-03-22T02:38:42.341Z,34.30
2023-03-22T02:41:28.473Z,27.80
2023-03-22T02:44:21.953Z,30.80
2023-03-22T02:47:29.580Z,29.40
2023-03-22T02:50:10.917Z,29.10
2023-03-22T02:52:55.912Z,29.80
2023-03-22T02:55:35.751Z,30.10
2023-03-22T02:58:14.735Z,27.10
2023-03-22T03:00:53.931Z,30.60
2023-03-22T03:03:35.948Z,27.50
2023-03-22T03:06:20.974Z,30.40
2023-03-22T03:09:02.263Z,27.90
2023-03-22T03:11:33.741Z,28.90
2023-03-22T03:14:04.730Z,30.90
2023-03-22T03:16:37.870Z,30.10
2023-03-22T03:19:19.743Z,29.30
2023-03-22T03:22:14.345Z,28.10
2023-03-22T03:24:59.832Z,26.20
2023-03-22T03:27:43.736Z,26.70
2023-03-22T03:30:17.141Z,27.50
2023-03-22T03:32:55.967Z,27.80
2023-03-22T03:38:08.317Z,28.00
2023-03-22T03:40:41.452Z,28.00
2023-03-22T03:43:13.430Z,26.20
2023-03-22T03:45:45.742Z,28.70
2023-03-22T03:48:21.667Z,25.50
2023-03-22T03:50:57.473Z,29.70
2023-03-22T03:53:36.345Z,25.30
2023-03-22T03:56:14.775Z,29.50
2023-03-22T03:58:49.541Z,25.00
2023-03-22T04:01:21.303Z,29.20
2023-03-22T04:03:55.108Z,25.70
2023-03-22T04:06:38.965Z,26.40
2023-03-22T04:09:10.086Z,25.70
2023-03-22T04:11:40.723Z,25.90
2023-03-22T04:14:23.708Z,30.10
2023-03-22T04:16:55.701Z,31.10
2023-03-22T04:19:26.557Z,26.90
2023-03-22T04:21:59.747Z,25.80
2023-03-22T04:24:33.893Z,27.80
2023-03-22T04:27:03.588Z,28.10
2023-03-22T04:29:35.722Z,26.80
2023-03-22T04:32:06.424Z,28.60
2023-03-22T04:34:41.001Z,29.10
2023-03-22T04:37:23.052Z,24.70
2023-03-22T04:39:53.865Z,26.80
2023-03-22T04:42:24.313Z,26.30
2023-03-22T04:45:14.694Z,29.20
2023-03-22T04:47:45.309Z,26.70
2023-03-22T04:50:18.470Z,25.90
2023-03-22T04:52:54.319Z,25.00
2023-03-22T04:55:24.637Z,26.80
2023-03-22T04:57:56.257Z,25.80
2023-03-22T05:00:39.894Z,28.00
2023-03-22T05:03:23.162Z,27.90
2023-03-22T05:06:07.313Z,28.50
2023-03-22T05:09:17.988Z,24.90
2023-03-22T05:11:53.934Z,28.10
2023-03-22T05:14:24.533Z,28.40
2023-03-22T05:17:09.655Z,28.80
2023-03-22T05:20:08.624Z,24.40
2023-03-22T05:22:53.392Z,27.40
2023-03-22T05:25:26.206Z,27.60
2023-03-22T05:28:01.834Z,22.60
2023-03-22T05:30:38.706Z,31.40
2023-03-22T05:34:23.783Z,28.40
2023-03-22T05:37:01.164Z,25.30
2023-03-22T05:39:30.981Z,28.30
2023-03-22T05:42:01.000Z,26.10
2023-03-22T05:44:33.090Z,25.60
2023-03-22T05:47:08.678Z,24.70
2023-03-22T05:49:44.778Z,27.70
2023-03-22T05:52:20.400Z,25.00
2023-03-22T05:54:50.664Z,23.00
2023-03-22T05:57:22.799Z,25.40
2023-03-22T06:00:01.251Z,25.70
2023-03-22T06:02:30.937Z,25.50
2023-03-22T06:05:13.162Z,25.50
2023-03-22T06:07:43.246Z,27.40
2023-03-22T06:10:16.177Z,23.40
2023-03-22T06:15:50.370Z,25.30
2023-03-22T06:18:43.117Z,28.00
2023-03-22T06:21:20.614Z,22.00
2023-03-22T06:23:50.620Z,26.00
2023-03-22T06:26:24.180Z,26.40
2023-03-22T06:28:57.630Z,25.20
2023-03-22T06:31:30.947Z,22.70
2023-03-22T06:34:22.266Z,25.10
2023-03-22T06:36:54.242Z,25.10
2023-03-22T06:39:26.109Z,26.10
2023-03-22T06:41:58.310Z,24.60
2023-03-22T06:44:36.081Z,25.10
2023-03-22T06:47:09.220Z,25.70
2023-03-22T06:49:42.264Z,22.90
2023-03-22T06:52:17.519Z,24.10
2023-03-22T06:55:05.313Z,26.70
2023-03-22T06:57:43.663Z,23.50
2023-03-22T07:00:36.147Z,22.40
2023-03-22T07:03:05.849Z,27.30
2023-03-22T07:05:35.735Z,23.70
2023-03-22T07:08:05.199Z,27.20
2023-03-22T07:10:34.746Z,22.10
2023-03-22T07:13:04.152Z,23.20
2023-03-22T07:15:34.727Z,20.90
2023-03-22T07:18:04.385Z,20.80
2023-03-22T07:20:36.529Z,20.10
2023-03-22T07:23:08.652Z,21.90
2023-03-22T07:25:41.437Z,22.10
2023-03-22T07:28:14.202Z,23.60
2023-03-22T07:30:45.351Z,21.80
2023-03-22T07:33:15.464Z,21.50
2023-03-22T07:35:46.170Z,28.90
2023-03-22T07:41:06.294Z,24.20
2023-03-22T07:43:52.448Z,21.20
2023-03-22T07:46:27.573Z,23.50
2023-03-22T07:48:57.217Z,22.80
2023-03-22T07:51:29.980Z,23.80
2023-03-22T07:54:03.299Z,22.10
2023-03-22T07:56:33.286Z,22.70
2023-03-22T07:59:03.759Z,26.00
2023-03-22T08:01:34.704Z,22.30
2023-03-22T08:04:05.226Z,25.80
2023-03-22T08:06:44.169Z,20.40
2023-03-22T08:09:22.621Z,22.10
2023-03-22T08:12:11.410Z,23.00
2023-03-22T08:17:18.097Z,21.00
2023-03-22T08:19:47.937Z,20.30
2023-03-22T08:22:18.490Z,18.00
2023-03-22T08:24:48.396Z,20.40
2023-03-22T08:27:19.327Z,20.30
2023-03-22T08:29:53.546Z,21.20
2023-03-22T08:32:23.321Z,20.80
2023-03-22T08:34:53.054Z,18.50
2023-03-22T08:37:22.846Z,20.00
2023-03-22T08:39:53.918Z,21.90
2023-03-22T08:42:24.442Z,20.70
2023-03-22T08:44:54.561Z,19.70
2023-03-22T08:47:24.945Z,23.10
2023-03-22T08:49:55.224Z,21.80
2023-03-22T08:52:25.131Z,19.90
2023-03-22T08:54:55.891Z,22.30
2023-03-22T08:57:27.156Z,27.00
2023-03-22T08:59:57.605Z,19.20
2023-03-22T09:02:27.971Z,19.00
2023-03-22T09:04:58.596Z,19.60
2023-03-22T09:07:29.186Z,21.00
2023-03-22T09:10:00.022Z,22.10
2023-03-22T09:12:29.897Z,22.50
2023-03-22T09:15:00.146Z,22.80
2023-03-22T09:17:30.343Z,21.40
2023-03-22T09:20:13.114Z,23.20
2023-03-22T09:22:44.999Z,25.60
2023-03-22T09:25:14.952Z,23.30
2023-03-22T09:27:45.622Z,23.50
2023-03-22T09:30:17.551Z,24.60
2023-03-22T09:32:48.192Z,21.70
2023-03-22T09:35:18.270Z,26.50
2023-03-22T09:37:48.888Z,23.70
2023-03-22T09:40:19.651Z,23.10
2023-03-22T09:42:54.707Z,25.30
2023-03-22T09:45:37.611Z,23.30
2023-03-22T09:48:18.617Z,24.50
2023-03-22T09:50:54.753Z,25.80
2023-03-22T09:53:29.144Z,27.20
2023-03-22T09:56:18.251Z,25.70
2023-03-22T09:58:57.845Z,25.00
2023-03-22T10:01:39.589Z,25.60
2023-03-22T10:04:42.830Z,27.90
2023-03-22T10:10:08.269Z,34.40
2023-03-22T10:12:48.345Z,30.20
2023-03-22T10:15:28.845Z,30.10
2023-03-22T10:18:01.425Z,30.20
2023-03-22T10:20:43.301Z,30.10
2023-03-22T10:23:32.111Z,36.40
2023-03-22T10:26:05.066Z,35.40
2023-03-22T10:28:40.049Z,33.00
2023-03-22T10:31:19.733Z,32.90
2023-03-22T10:34:06.521Z,32.00
2023-03-22T10:36:45.014Z,31.60
2023-03-22T10:39:27.935Z,32.40
2023-03-22T10:42:02.387Z,31.90
2023-03-22T10:44:40.201Z,30.30
2023-03-22T10:47:11.625Z,32.20
2023-03-22T10:49:54.455Z,27.60
2023-03-22T10:52:41.307Z,32.40
2023-03-22T10:55:17.300Z,31.50
2023-03-22T10:58:13.341Z,32.20
2023-03-22T11:00:52.392Z,31.40
2023-03-22T11:03:34.861Z,26.00
2023-03-22T11:06:11.070Z,31.00
2023-03-22T11:08:56.723Z,32.40
2023-03-22T11:11:29.721Z,31.20
2023-03-22T11:14:06.514Z,31.30
2023-03-22T11:16:47.949Z,28.10
2023-03-22T11:19:26.170Z,28.80
2023-03-22T11:21:58.445Z,30.20
2023-03-22T11:24:34.592Z,29.00
2023-03-22T11:27:11.156Z,32.60
2023-03-22T11:29:52.028Z,29.20
2023-03-22T11:32:28.421Z,28.20
2023-03-22T11:35:04.985Z,30.70
2023-03-22T11:37:40.949Z,33.20
2023-03-22T11:40:16.441Z,26.90
2023-03-22T11:42:49.337Z,27.30
2023-03-22T11:45:27.719Z,31.80
2023-03-22T11:48:10.363Z,30.00
2023-03-22T11:50:46.070Z,28.90
2023-03-22T11:53:25.008Z,28.20
2023-03-22T11:56:16.548Z,30.80
2023-03-22T11:59:05.243Z,31.30
2023-03-22T12:02:13.162Z,26.50
2023-03-22T12:07:56.801Z,24.80
2023-03-22T12:10:32.074Z,28.90
2023-03-22T12:13:11.200Z,27.40
2023-03-22T12:15:48.437Z,27.30
2023-03-22T12:18:28.982Z,27.10
2023-03-22T12:21:01.618Z,27.40
2023-03-22T12:23:36.903Z,26.00
2023-03-22T12:26:14.463Z,28.00
2023-03-22T12:28:56.438Z,28.50
2023-03-22T12:31:33.873Z,26.10
2023-03-22T12:34:25.776Z,25.60
2023-03-22T12:36:59.889Z,28.40
2023-03-22T12:39:41.338Z,26.80
2023-03-22T12:42:21.905Z,26.50
2023-03-22T12:45:05.204Z,29.00
2023-03-22T12:47:50.867Z,24.80
2023-03-22T12:50:31.751Z,28.60
2023-03-22T12:53:04.049Z,27.80
2023-03-22T12:55:38.242Z,32.60
2023-03-22T12:58:10.343Z,24.20
2023-03-22T13:00:54.590Z,24.70
2023-03-22T13:03:49.305Z,22.00
2023-03-22T13:06:55.556Z,27.40
2023-03-22T13:09:49.053Z,25.40
2023-03-22T13:12:34.618Z,25.00
2023-03-22T13:15:41.838Z,25.80
2023-03-22T13:18:38.307Z,30.70
2023-03-22T13:21:19.447Z,25.40
2023-03-22T13:24:04.880Z,27.70
2023-03-22T13:26:42.325Z,25.40
2023-03-22T13:29:25.233Z,24.40
2023-03-22T13:32:00.185Z,22.30
2023-03-22T13:34:39.735Z,22.30
2023-03-22T13:37:30.051Z,23.80
2023-03-22T13:40:04.435Z,26.20
2023-03-22T13:42:38.997Z,24.80
2023-03-22T13:45:41.623Z,25.70
2023-03-22T13:48:36.062Z,28.00
2023-03-22T13:51:16.130Z,27.20
2023-03-22T13:54:02.289Z,29.00
2023-03-22T13:56:59.889Z,29.10
2023-03-22T14:00:09.442Z,29.90
2023-03-22T14:02:43.094Z,30.00
2023-03-22T14:05:27.233Z,30.50
2023-03-22T14:08:02.396Z,34.50
2023-03-22T14:10:47.887Z,29.60
2023-03-22T14:13:32.115Z,33.90
2023-03-22T14:16:19.536Z,33.50
2023-03-22T14:21:31.488Z,27.20
